createdAt,value
2018-09-23T00:01:58.551Z,17.63
2018-09-23T00:04:26.731Z,18.70
2018-09-23T00:06:54.931Z,17.50
2018-09-23T00:09:23.115Z,17.70
2018-09-23T00:11:51.299Z,18.53
2018-09-23T00:14:19.484Z,17.87
2018-09-23T00:16:47.668Z,18.20
2018-09-23T00:19:15.861Z,17.93
2018-09-23T00:21:44.039Z,17.77
2018-09-23T00:24:12.297Z,17.77
2018-09-23T00:26:40.482Z,16.97
2018-09-23T00:29:08.675Z,18.37
2018-09-23T00:31:36.849Z,19.13
2018-09-23T00:34:05.058Z,18.77
2018-09-23T00:36:33.267Z,18.47
2018-09-23T00:39:01.452Z,18.60
2018-09-23T00:41:29.635Z,18.90
2018-09-23T00:43:57.806Z,18.93
2018-09-23T00:46:26.007Z,20.23
2018-09-23T00:48:54.179Z,21.70
2018-09-23T00:51:22.407Z,23.33
2018-09-23T00:53:50.594Z,21.07
2018-09-23T00:56:18.772Z,21.60
2018-09-23T00:58:46.939Z,23.70
2018-09-23T01:01:15.130Z,23.33
2018-09-23T01:03:43.307Z,20.10
2018-09-23T01:06:11.499Z,20.33
2018-09-23T01:08:39.684Z,19.80
2018-09-23T01:11:07.872Z,19.90
2018-09-23T01:13:36.039Z,20.93
2018-09-23T01:16:04.232Z,18.93
2018-09-23T01:18:32.411Z,18.20
2018-09-23T01:21:00.606Z,19.60
2018-09-23T01:23:28.984Z,18.57
2018-09-23T01:25:57.159Z,18.07
2018-09-23T01:28:25.343Z,17.90
2018-09-23T01:30:53.729Z,20.23
2018-09-23T01:33:21.903Z,20.00
2018-09-23T01:35:50.780Z,22.90
2018-09-23T01:38:18.968Z,23.70
2018-09-23T01:40:47.163Z,23.10
2018-09-23T01:43:15.367Z,22.40
2018-09-23T01:45:43.547Z,21.20
2018-09-23T01:48:11.748Z,18.10
2018-09-23T01:50:39.917Z,16.20
2018-09-23T01:53:08.123Z,14.70
2018-09-23T01:55:36.299Z,15.00
2018-09-23T01:58:04.484Z,14.63
2018-09-23T02:00:32.675Z,13.83
2018-09-23T02:03:01.007Z,13.70
2018-09-23T02:05:29.204Z,13.40
2018-09-23T02:07:57.423Z,12.97
2018-09-23T02:10:25.613Z,13.70
2018-09-23T02:12:53.804Z,13.77
2018-09-23T02:15:21.989Z,13.40
2018-09-23T02:17:50.213Z,12.97
2018-09-23T02:20:18.408Z,13.57
2018-09-23T02:22:46.584Z,14.23
2018-09-23T02:25:14.935Z,13.60
2018-09-23T02:27:43.107Z,13.03
2018-09-23T02:30:11.307Z,14.73
2018-09-23T02:32:39.491Z,13.07
2018-09-23T02:35:07.703Z,13.23
2018-09-23T02:37:35.912Z,13.47
2018-09-23T02:40:04.124Z,13.97
2018-09-23T02:42:32.319Z,13.60
2018-09-23T02:45:00.503Z,13.97
2018-09-23T02:47:28.708Z,13.37
2018-09-23T02:49:57.122Z,13.80
2018-09-23T02:52:25.505Z,14.13
2018-09-23T02:54:53.691Z,12.90
2018-09-23T02:57:21.916Z,13.23
2018-09-23T02:59:50.104Z,13.70
2018-09-23T03:02:18.300Z,13.57
2018-09-23T03:04:46.483Z,13.43
2018-09-23T03:07:14.674Z,13.40
2018-09-23T03:09:42.903Z,12.90
2018-09-23T03:12:11.087Z,12.83
2018-09-23T03:14:39.276Z,13.00
2018-09-23T03:17:07.476Z,13.90
2018-09-23T03:19:35.672Z,13.20
2018-09-23T03:22:03.870Z,12.60
2018-09-23T03:24:32.051Z,12.87
2018-09-23T03:27:00.271Z,13.77
2018-09-23T03:29:28.446Z,13.03
2018-09-23T03:31:56.635Z,12.67
2018-09-23T03:34:24.831Z,12.30
2018-09-23T03:36:53.010Z,12.67
2018-09-23T03:39:21.199Z,12.87
2018-09-23T03:41:49.397Z,12.70
2018-09-23T03:44:17.588Z,12.57
2018-09-23T03:46:45.780Z,12.10
2018-09-23T03:49:13.987Z,12.10
2018-09-23T03:51:42.192Z,11.83
2018-09-23T03:54:12.318Z,12.53
2018-09-23T03:56:40.903Z,11.83
2018-09-23T03:59:09.083Z,11.97
2018-09-23T04:01:37.361Z,11.10
2018-09-23T04:04:05.851Z,11.70
2018-09-23T04:06:34.044Z,11.53
2018-09-23T04:09:02.202Z,11.20
2018-09-23T04:11:30.428Z,11.40
2018-09-23T04:13:58.634Z,11.77
2018-09-23T04:16:26.823Z,10.83
2018-09-23T04:18:55.019Z,12.33
2018-09-23T04:21:23.196Z,11.50
2018-09-23T04:23:51.384Z,11.70
2018-09-23T04:26:19.563Z,12.30
2018-09-23T04:28:47.764Z,11.70
2018-09-23T04:31:15.939Z,11.60
2018-09-23T04:33:44.151Z,12.60
2018-09-23T04:36:12.332Z,11.53
2018-09-23T04:38:40.511Z,11.40
2018-09-23T04:41:08.702Z,11.57
2018-09-23T04:43:36.888Z,11.70
2018-09-23T04:46:05.093Z,11.67
2018-09-23T04:48:33.295Z,11.50
2018-09-23T04:51:01.497Z,11.50
2018-09-23T04:53:29.717Z,11.00
2018-09-23T04:55:57.895Z,11.20
2018-09-23T04:58:26.087Z,11.20
2018-09-23T05:00:54.267Z,11.10
2018-09-23T05:03:22.483Z,11.20
2018-09-23T05:05:50.657Z,11.50
2018-09-23T05:08:18.862Z,11.50
2018-09-23T05:10:47.068Z,11.50
2018-09-23T05:13:15.263Z,11.00
2018-09-23T05:15:43.584Z,11.13
2018-09-23T05:18:11.784Z,11.13
2018-09-23T05:20:39.975Z,10.90
2018-09-23T05:23:08.150Z,10.57
2018-09-23T05:25:36.384Z,11.00
2018-09-23T05:28:05.411Z,11.30
2018-09-23T05:30:33.608Z,11.00
2018-09-23T05:33:01.783Z,11.00
2018-09-23T05:35:30.066Z,12.30
2018-09-23T05:37:58.231Z,10.60
2018-09-23T05:40:26.522Z,10.10
2018-09-23T05:42:54.849Z,9.87
2018-09-23T05:45:23.328Z,9.97
2018-09-23T05:47:51.533Z,10.00
2018-09-23T05:50:20.219Z,10.00
2018-09-23T05:52:55.678Z,10.13
2018-09-23T05:55:23.864Z,10.00
2018-09-23T05:57:52.107Z,10.27
2018-09-23T06:00:20.309Z,10.43
2018-09-23T06:02:48.504Z,9.90
2018-09-23T06:05:16.695Z,10.37
2018-09-23T06:07:44.916Z,10.30
2018-09-23T06:10:13.448Z,10.20
2018-09-23T06:12:41.640Z,9.50
2018-09-23T06:15:09.848Z,9.80
2018-09-23T06:17:38.179Z,9.50
2018-09-23T06:20:06.424Z,10.67
2018-09-23T06:22:34.594Z,9.57
2018-09-23T06:25:02.846Z,10.20
2018-09-23T06:27:30.973Z,9.73
2018-09-23T06:29:59.232Z,10.50
2018-09-23T06:32:27.437Z,9.50
2018-09-23T06:34:55.618Z,9.83
2018-09-23T06:37:23.804Z,10.10
2018-09-23T06:39:51.992Z,10.30
2018-09-23T06:42:20.200Z,10.00
2018-09-23T06:44:48.389Z,9.60
2018-09-23T06:47:16.573Z,9.80
2018-09-23T06:49:44.759Z,9.90
2018-09-23T06:52:12.947Z,9.70
2018-09-23T06:54:41.118Z,10.00
2018-09-23T06:57:09.306Z,9.80
2018-09-23T06:59:37.482Z,9.80
2018-09-23T07:02:05.663Z,10.20
2018-09-23T07:04:33.951Z,10.20
2018-09-23T07:07:02.054Z,9.93
2018-09-23T07:09:30.234Z,10.20
2018-09-23T07:11:58.423Z,10.27
2018-09-23T07:14:26.602Z,10.60
2018-09-23T07:16:54.824Z,11.73
2018-09-23T07:19:23.014Z,10.60
2018-09-23T07:21:51.228Z,10.97
2018-09-23T07:24:19.420Z,10.90
2018-09-23T07:26:47.618Z,11.00
2018-09-23T07:29:15.817Z,10.47
2018-09-23T07:31:44.019Z,10.50
2018-09-23T07:34:12.219Z,10.57
2018-09-23T07:36:40.473Z,10.33
2018-09-23T07:39:09.458Z,11.20
2018-09-23T07:41:37.659Z,11.30
2018-09-23T07:44:06.020Z,11.37
2018-09-23T07:46:34.207Z,10.67
2018-09-23T07:49:02.445Z,10.40
2018-09-23T07:51:30.695Z,10.60
2018-09-23T07:53:58.948Z,11.00
2018-09-23T07:56:28.327Z,11.00
2018-09-23T07:58:56.508Z,11.17
2018-09-23T08:01:24.761Z,11.70
2018-09-23T08:03:53.184Z,11.00
2018-09-23T08:06:21.388Z,10.93
2018-09-23T08:08:49.619Z,11.30
2018-09-23T08:11:17.878Z,11.60
2018-09-23T08:13:46.259Z,10.40
2018-09-23T08:16:14.383Z,10.20
2018-09-23T08:18:42.645Z,11.13
2018-09-23T08:21:10.915Z,11.30
2018-09-23T08:23:39.116Z,11.10
2018-09-23T08:26:07.468Z,10.57
2018-09-23T08:28:35.688Z,10.50
2018-09-23T08:31:03.916Z,10.40
2018-09-23T08:33:32.146Z,10.70
2018-09-23T08:36:00.755Z,10.10
2018-09-23T08:38:28.946Z,10.33
2018-09-23T08:40:57.279Z,10.00
2018-09-23T08:43:25.474Z,9.60
2018-09-23T08:45:53.691Z,9.87
2018-09-23T08:48:21.991Z,10.20
2018-09-23T08:50:50.140Z,10.53
2018-09-23T08:53:18.396Z,9.80
2018-09-23T08:55:46.562Z,9.70
2018-09-23T08:58:14.968Z,10.20
2018-09-23T09:00:43.218Z,9.70
2018-09-23T09:03:11.421Z,9.60
2018-09-23T09:05:39.727Z,9.30
2018-09-23T09:08:07.980Z,9.00
2018-09-23T09:10:36.815Z,9.43
2018-09-23T09:13:05.019Z,9.57
2018-09-23T09:15:34.307Z,9.20
2018-09-23T09:18:02.566Z,9.40
2018-09-23T09:20:32.331Z,9.40
2018-09-23T09:23:00.691Z,10.10
2018-09-23T09:25:28.879Z,10.50
2018-09-23T09:27:57.120Z,9.80
2018-09-23T09:30:25.335Z,10.30
2018-09-23T09:32:53.713Z,10.53
2018-09-23T09:35:22.044Z,9.40
2018-09-23T09:37:53.893Z,8.73
2018-09-23T09:40:22.177Z,8.90
2018-09-23T09:42:51.168Z,10.30
2018-09-23T09:45:19.417Z,10.17
2018-09-23T09:47:47.857Z,9.30
2018-09-23T09:50:17.297Z,9.40
2018-09-23T09:52:45.606Z,10.40
2018-09-23T09:55:13.985Z,10.93
2018-09-23T09:57:42.267Z,10.47
2018-09-23T10:00:10.558Z,9.80
2018-09-23T10:02:38.734Z,9.80
2018-09-23T10:05:07.108Z,9.47
2018-09-23T10:07:35.297Z,9.40
2018-09-23T10:10:03.565Z,9.27
2018-09-23T10:12:31.756Z,10.30
2018-09-23T10:14:59.936Z,10.23
2018-09-23T10:17:28.321Z,9.10
2018-09-23T10:19:56.500Z,9.20
2018-09-23T10:22:24.755Z,8.37
2018-09-23T10:24:52.916Z,8.50
2018-09-23T10:27:21.199Z,8.33
2018-09-23T10:29:49.443Z,8.60
2018-09-23T10:32:18.824Z,8.17
2018-09-23T10:34:47.034Z,8.00
2018-09-23T10:37:15.275Z,8.60
2018-09-23T10:39:43.476Z,8.20
2018-09-23T10:42:11.672Z,9.03
2018-09-23T10:44:39.883Z,9.50
2018-09-23T10:47:08.127Z,8.80
2018-09-23T10:49:36.307Z,9.87
2018-09-23T10:52:04.526Z,9.30
2018-09-23T10:54:32.719Z,9.33
2018-09-23T10:57:00.912Z,9.27
2018-09-23T10:59:29.141Z,8.80
2018-09-23T11:01:57.284Z,9.70
2018-09-23T11:04:26.235Z,10.10
2018-09-23T11:06:54.754Z,10.40
2018-09-23T11:09:23.095Z,10.97
2018-09-23T11:11:51.329Z,11.03
2018-09-23T11:14:19.743Z,12.70
2018-09-23T11:16:47.934Z,13.73
2018-09-23T11:19:16.153Z,13.90
2018-09-23T11:21:44.364Z,14.30
2018-09-23T11:24:12.551Z,13.50
2018-09-23T11:26:40.758Z,14.30
2018-09-23T11:29:08.964Z,14.40
2018-09-23T11:31:37.171Z,15.07
2018-09-23T11:34:05.359Z,15.07
2018-09-23T11:36:33.587Z,13.90
2018-09-23T11:39:01.803Z,13.93
2018-09-23T11:41:29.984Z,14.50
2018-09-23T11:43:58.195Z,14.47
2018-09-23T11:46:26.380Z,13.80
2018-09-23T11:48:54.588Z,13.70
2018-09-23T11:51:22.766Z,14.47
2018-09-23T11:53:50.991Z,12.33
2018-09-23T11:56:19.179Z,12.43
2018-09-23T11:58:47.486Z,12.20
2018-09-23T12:01:15.585Z,15.23
2018-09-23T12:03:43.767Z,13.30
2018-09-23T12:06:11.962Z,14.00
2018-09-23T12:08:40.163Z,14.70
2018-09-23T12:11:08.365Z,16.57
2018-09-23T12:13:36.555Z,18.70
2018-09-23T12:16:04.775Z,19.20
2018-09-23T12:18:32.987Z,19.83
2018-09-23T12:21:01.205Z,22.33
2018-09-23T12:23:29.391Z,22.77
2018-09-23T12:25:57.592Z,22.60
2018-09-23T12:28:25.760Z,23.50
2018-09-23T12:30:53.959Z,24.17
2018-09-23T12:33:22.275Z,23.73
2018-09-23T12:35:50.467Z,23.40
2018-09-23T12:38:18.663Z,25.90
2018-09-23T12:40:47.000Z,26.70
2018-09-23T12:43:15.229Z,25.67
2018-09-23T12:45:43.426Z,27.40
2018-09-23T12:48:11.664Z,27.80
2018-09-23T12:50:40.076Z,31.30
2018-09-23T12:53:08.260Z,30.70
2018-09-23T12:55:36.553Z,36.23
2018-09-23T12:58:04.835Z,40.40
2018-09-23T13:00:33.771Z,37.27
2018-09-23T13:03:02.071Z,40.13
2018-09-23T13:05:30.406Z,41.03
2018-09-23T13:07:58.749Z,38.20
2018-09-23T13:10:27.041Z,41.87
2018-09-23T13:12:55.278Z,37.53
2018-09-23T13:15:23.596Z,43.37
2018-09-23T13:17:52.004Z,42.37
2018-09-23T13:20:20.519Z,41.03
2018-09-23T13:22:48.908Z,50.13
2018-09-23T13:25:18.138Z,36.60
2018-09-23T13:27:46.501Z,36.70
2018-09-23T13:30:15.043Z,36.63
2018-09-23T13:32:43.270Z,37.67
2018-09-23T13:35:11.468Z,35.47
2018-09-23T13:37:39.782Z,39.23
2018-09-23T13:40:09.734Z,40.00
2018-09-23T13:42:38.032Z,34.43
2018-09-23T13:45:06.341Z,34.10
2018-09-23T13:47:34.616Z,32.63
2018-09-23T13:50:03.997Z,35.80
2018-09-23T13:52:32.869Z,35.17
2018-09-23T13:55:01.300Z,34.60
2018-09-23T13:57:29.629Z,38.57
2018-09-23T13:59:58.120Z,37.67
2018-09-23T14:02:26.750Z,36.50
2018-09-23T14:04:56.105Z,34.60
2018-09-23T14:07:25.139Z,33.87
2018-09-23T14:09:54.899Z,36.57
2018-09-23T14:12:23.187Z,37.47
2018-09-23T14:14:53.267Z,36.20
2018-09-23T14:17:22.407Z,31.10
2018-09-23T14:19:50.731Z,31.03
2018-09-23T14:22:19.566Z,31.13
2018-09-23T14:24:48.691Z,31.70
2018-09-23T14:27:17.801Z,31.80
2018-09-23T14:29:46.472Z,28.97
2018-09-23T14:32:14.853Z,31.10
2018-09-23T14:34:43.079Z,28.50
2018-09-23T14:37:11.356Z,26.97
2018-09-23T14:39:39.946Z,26.30
2018-09-23T14:42:08.343Z,24.70
2018-09-23T14:44:37.313Z,23.67
2018-09-23T14:47:05.760Z,26.90
2018-09-23T14:49:34.956Z,26.43
2018-09-23T14:52:03.148Z,25.00
2018-09-23T14:54:31.631Z,26.00
2018-09-23T14:57:00.040Z,23.37
2018-09-23T14:59:28.579Z,23.37
2018-09-23T15:01:57.684Z,23.83
2018-09-23T15:04:26.213Z,23.63
2018-09-23T15:06:56.073Z,23.10
2018-09-23T15:09:24.580Z,21.60
2018-09-23T15:11:52.868Z,20.33
2018-09-23T15:14:21.343Z,19.07
2018-09-23T15:16:50.462Z,17.90
2018-09-23T15:19:18.796Z,18.50
2018-09-23T15:21:47.338Z,17.77
2018-09-23T15:24:15.571Z,18.87
2018-09-23T15:26:44.107Z,23.00
2018-09-23T15:29:13.147Z,22.33
2018-09-23T15:31:42.087Z,17.60
2018-09-23T15:34:10.351Z,17.97
2018-09-23T15:36:38.685Z,17.63
2018-09-23T15:39:07.768Z,16.70
2018-09-23T15:41:36.189Z,16.80
2018-09-23T15:44:04.479Z,16.57
2018-09-23T15:46:32.816Z,17.80
2018-09-23T15:49:01.103Z,16.73
2018-09-23T15:51:29.967Z,17.93
2018-09-23T15:53:58.270Z,17.47
2018-09-23T15:56:26.595Z,18.10
2018-09-23T15:58:55.448Z,17.00
2018-09-23T16:01:24.060Z,14.97
2018-09-23T16:03:52.530Z,15.97
2018-09-23T16:06:20.948Z,16.27
2018-09-23T16:08:49.201Z,15.50
2018-09-23T16:11:17.551Z,15.70
2018-09-23T16:13:45.792Z,15.90
2018-09-23T16:16:13.979Z,17.17
2018-09-23T16:18:42.561Z,21.20
2018-09-23T16:21:10.796Z,19.50
2018-09-23T16:23:39.955Z,21.43
2018-09-23T16:26:08.279Z,17.30
2018-09-23T16:28:36.503Z,15.30
2018-09-23T16:31:04.735Z,20.27
2018-09-23T16:33:33.895Z,15.70
2018-09-23T16:36:02.218Z,15.57
2018-09-23T16:38:30.543Z,15.97
2018-09-23T16:40:58.983Z,15.50
2018-09-23T16:43:27.179Z,16.50
2018-09-23T16:45:56.379Z,15.07
2018-09-23T16:48:24.839Z,15.10
2018-09-23T16:50:53.264Z,16.27
2018-09-23T16:53:21.527Z,16.30
2018-09-23T16:55:49.997Z,15.80
2018-09-23T16:58:18.483Z,14.47
2018-09-23T17:00:46.821Z,15.43
2018-09-23T17:03:15.747Z,13.67
2018-09-23T17:05:44.143Z,13.70
2018-09-23T17:08:12.455Z,13.83
2018-09-23T17:10:40.780Z,13.43
2018-09-23T17:13:09.083Z,14.17
2018-09-23T17:15:37.349Z,14.67
2018-09-23T17:18:05.935Z,15.07
2018-09-23T17:20:34.460Z,14.10
2018-09-23T17:23:02.863Z,15.80
2018-09-23T17:25:31.116Z,14.20
2018-09-23T17:27:59.383Z,15.60
2018-09-23T17:30:27.863Z,16.50
2018-09-23T17:32:56.026Z,14.80
2018-09-23T17:35:24.259Z,15.20
2018-09-23T17:37:52.435Z,15.80
2018-09-23T17:40:20.604Z,15.00
2018-09-23T17:42:48.797Z,15.37
2018-09-23T17:45:16.997Z,16.13
2018-09-23T17:47:47.691Z,16.20
2018-09-23T17:50:15.866Z,15.70
2018-09-23T17:52:44.483Z,17.60
2018-09-23T17:55:12.875Z,15.20
2018-09-23T17:57:41.355Z,15.77
2018-09-23T18:00:10.943Z,16.80
2018-09-23T18:02:39.458Z,15.43
2018-09-23T18:05:07.855Z,15.63
2018-09-23T18:07:36.096Z,16.97
2018-09-23T18:10:04.319Z,16.83
2018-09-23T18:12:32.598Z,17.23
2018-09-23T18:15:00.809Z,17.30
2018-09-23T18:17:29.040Z,19.83
2018-09-23T18:19:57.543Z,18.00
2018-09-23T18:22:25.813Z,15.97
2018-09-23T18:24:54.827Z,16.27
2018-09-23T18:27:23.094Z,16.20
2018-09-23T18:29:52.003Z,15.60
2018-09-23T18:32:20.256Z,16.10
2018-09-23T18:34:48.504Z,16.17
2018-09-23T18:37:17.726Z,16.80
2018-09-23T18:39:46.036Z,17.20
2018-09-23T18:42:14.274Z,16.60
2018-09-23T18:44:42.591Z,17.20
2018-09-23T18:47:10.963Z,18.10
2018-09-23T18:49:39.227Z,19.20
2018-09-23T18:52:08.878Z,20.40
2018-09-23T18:54:42.367Z,19.97
2018-09-23T18:57:10.641Z,20.33
2018-09-23T18:59:38.904Z,21.60
2018-09-23T19:02:07.407Z,22.10
2018-09-23T19:04:35.899Z,21.63
2018-09-23T19:07:04.328Z,22.10
2018-09-23T19:09:33.515Z,22.60
2018-09-23T19:12:01.783Z,23.30
2018-09-23T19:14:30.578Z,25.00
2018-09-23T19:16:58.814Z,23.60
2018-09-23T19:19:32.859Z,23.70
2018-09-23T19:22:01.105Z,24.90
2018-09-23T19:24:29.485Z,24.17
2018-09-23T19:26:57.776Z,26.50
2018-09-23T19:29:25.974Z,24.50
2018-09-23T19:31:54.256Z,24.20
2018-09-23T19:34:22.512Z,23.70
2018-09-23T19:36:50.730Z,24.70
2018-09-23T19:39:19.448Z,25.27
2018-09-23T19:41:47.652Z,26.10
2018-09-23T19:44:16.480Z,25.50
2018-09-23T19:46:44.676Z,23.77
2018-09-23T19:49:12.905Z,22.87
2018-09-23T19:51:41.074Z,21.63
2018-09-23T19:54:09.268Z,21.77
2018-09-23T19:56:37.459Z,21.67
2018-09-23T19:59:05.680Z,21.07
2018-09-23T20:01:33.868Z,20.90
2018-09-23T20:04:02.084Z,20.67
2018-09-23T20:06:30.334Z,19.73
2018-09-23T20:08:58.480Z,21.30
2018-09-23T20:11:26.655Z,22.03
2018-09-23T20:13:54.860Z,20.70
2018-09-23T20:16:23.041Z,20.30
2018-09-23T20:18:51.227Z,19.30
2018-09-23T20:21:19.407Z,20.33
2018-09-23T20:23:47.742Z,19.33
2018-09-23T20:26:15.971Z,19.10
2018-09-23T20:28:44.823Z,18.90
2018-09-23T20:31:13.035Z,17.97
2018-09-23T20:33:41.226Z,17.60
2018-09-23T20:36:09.429Z,17.57
2018-09-23T20:38:37.623Z,17.27
2018-09-23T20:41:05.923Z,18.10
2018-09-23T20:43:34.115Z,17.47
2018-09-23T20:46:02.303Z,17.40
2018-09-23T20:48:30.474Z,18.23
2018-09-23T20:50:58.668Z,17.53
2018-09-23T20:53:26.856Z,18.50
2018-09-23T20:55:55.059Z,18.47
2018-09-23T20:58:23.266Z,18.20
2018-09-23T21:00:51.476Z,18.67
2018-09-23T21:03:19.659Z,18.33
2018-09-23T21:05:47.864Z,18.27
2018-09-23T21:08:16.056Z,18.73
2018-09-23T21:10:44.251Z,19.53
2018-09-23T21:13:12.439Z,17.40
2018-09-23T21:15:40.656Z,19.00
2018-09-23T21:18:08.847Z,18.90
2018-09-23T21:20:37.031Z,19.77
2018-09-23T21:23:05.505Z,18.87
2018-09-23T21:25:33.691Z,19.50
2018-09-23T21:28:01.892Z,20.53
2018-09-23T21:30:30.096Z,20.10
2018-09-23T21:32:58.291Z,19.87
2018-09-23T21:35:26.482Z,20.80
2018-09-23T21:37:54.712Z,21.90
2018-09-23T21:40:22.905Z,21.80
2018-09-23T21:42:51.083Z,21.97
2018-09-23T21:45:19.280Z,22.43
2018-09-23T21:47:47.576Z,22.83
2018-09-23T21:50:15.778Z,24.67
2018-09-23T21:52:43.973Z,24.47
2018-09-23T21:55:12.151Z,24.53
2018-09-23T21:57:40.331Z,25.07
2018-09-23T22:00:09.400Z,24.60
2018-09-23T22:02:37.583Z,25.87
2018-09-23T22:05:05.785Z,26.17
2018-09-23T22:07:33.991Z,25.60
2018-09-23T22:10:02.179Z,26.33
2018-09-23T22:12:30.388Z,26.83
2018-09-23T22:14:58.572Z,26.00
2018-09-23T22:17:26.779Z,26.30
2018-09-23T22:19:54.983Z,26.50
2018-09-23T22:22:23.213Z,26.10
2018-09-23T22:24:51.399Z,26.67
2018-09-23T22:27:19.604Z,25.73
2018-09-23T22:29:47.792Z,26.47
2018-09-23T22:32:15.976Z,25.57
2018-09-23T22:34:44.155Z,27.17
2018-09-23T22:37:12.360Z,25.47
2018-09-23T22:39:40.559Z,24.50
2018-09-23T22:42:08.764Z,25.10
2018-09-23T22:44:36.955Z,27.40
2018-09-23T22:47:05.145Z,25.87
2018-09-23T22:49:33.325Z,26.33
2018-09-23T22:52:01.573Z,27.10
2018-09-23T22:54:29.777Z,26.93
2018-09-23T22:56:57.979Z,26.40
2018-09-23T22:59:26.213Z,27.33
2018-09-23T23:01:54.396Z,27.27
2018-09-23T23:04:22.573Z,28.37
2018-09-23T23:06:50.775Z,26.63
2018-09-23T23:09:18.975Z,27.50
2018-09-23T23:11:47.174Z,27.10
2018-09-23T23:14:15.387Z,26.03
2018-09-23T23:16:43.591Z,27.57
2018-09-23T23:19:11.819Z,27.20
2018-09-23T23:21:40.004Z,27.13
2018-09-23T23:24:08.206Z,28.50
2018-09-23T23:26:36.424Z,28.73
2018-09-23T23:29:04.657Z,28.50
2018-09-23T23:31:32.843Z,29.87
2018-09-23T23:34:01.044Z,30.17
2018-09-23T23:36:29.249Z,29.83
2018-09-23T23:38:57.445Z,27.70
2018-09-23T23:41:25.730Z,26.90
2018-09-23T23:43:53.939Z,26.90
2018-09-23T23:46:22.138Z,26.70
2018-09-23T23:48:50.344Z,26.80
2018-09-23T23:51:18.536Z,25.93
2018-09-23T23:53:46.766Z,26.23
2018-09-23T23:56:14.955Z,26.23
2018-09-23T23:58:43.154Z,26.27
